Time;durP1;ratioP1;P1;durP2;ratioP2;P2;SDS_P1;SDS_P2;PMS_P1;PMS_P2;Temp;Humidity;BMP_temperature;BMP_pressure;BME280_temperature;BME280_humidity;BME280_pressure;Samples;Min_cycle;Max_cycle;Signal;HPM_P1;HPM_P2
2023/05/04 00:02:25;;;;;;;;;;;13.20;52.80;;;8.92;92.91;95810.56;5051359;28;19916;-54
2023/05/04 00:04:51;;;;;;;;;;;13.20;52.90;;;8.88;93.01;95814.78;5050305;28;19909;-54
2023/05/04 00:07:18;;;;;;;;;;;13.10;53.00;;;8.84;93.33;95817.13;5051040;28;20007;-54
2023/05/04 00:09:43;;;;;;;;;;;13.10;53.10;;;8.78;93.87;95816.25;5050079;28;19921;-55
2023/05/04 00:12:09;;;;;;;;;;;13.10;53.20;;;8.74;94.09;95809.00;5053545;28;19908;-58
2023/05/04 00:14:36;;;;;;;;;;;13.10;53.20;;;8.69;94.50;95812.41;5054765;28;20014;-54
2023/05/04 00:17:05;;;;;;;;;;;13.00;53.40;;;8.67;94.41;95816.38;5044320;28;19908;-57
2023/05/04 00:19:35;;;;;;;;;;;13.00;53.50;;;8.64;94.97;95814.19;5054817;28;19908;-55
2023/05/04 00:22:01;;;;;;;;;;;12.90;54.20;;;8.62;95.20;95813.63;5053591;28;19913;-56
2023/05/04 00:24:28;;;;;;;;;;;12.90;53.70;;;8.60;95.05;95797.97;5054757;28;20375;-54
2023/05/04 00:26:54;;;;;;;;;;;12.90;53.80;;;8.55;95.29;95803.19;5054786;28;19908;-55
2023/05/04 00:29:19;;;;;;;;;;;12.90;54.00;;;8.55;95.42;95801.38;5057121;28;20282;-58
2023/05/04 00:31:45;;;;;;;;;;;12.90;54.10;;;8.53;95.50;95800.00;5054658;28;19909;-52
2023/05/04 00:34:11;;;;;;;;;;;12.80;54.20;;;8.50;95.55;95806.59;5053554;28;19909;-51
2023/05/04 00:36:37;;;;;;;;;;;12.80;54.20;;;8.49;95.66;95804.19;5054345;28;19945;-53
2023/05/04 00:39:02;;;;;;;;;;;12.80;54.30;;;8.46;95.89;95802.00;5054263;28;20094;-55
2023/05/04 00:41:28;;;;;;;;;;;12.80;54.40;;;8.44;96.31;95804.94;5053076;28;19908;-53
2023/05/04 00:43:54;;;;;;;;;;;12.70;54.50;;;8.40;96.31;95795.84;5054593;28;19919;-55
2023/05/04 00:46:20;;;;;;;;;;;12.70;54.60;;;8.42;96.39;95806.22;5053123;28;20375;-53
2023/05/04 00:48:49;;;;;;;;;;;12.70;54.70;;;8.40;96.59;95800.34;5054124;28;19947;-53
2023/05/04 00:51:18;;;;;;;;;;;12.70;54.80;;;8.36;96.76;95797.34;5053865;28;20013;-59
2023/05/04 00:53:44;;;;;;;;;;;12.70;54.90;;;8.31;96.93;95792.78;5053284;28;19946;-58
2023/05/04 00:56:11;;;;;;;;;;;12.60;54.90;;;8.31;97.06;95800.75;5053686;28;20006;-56
2023/05/04 00:58:37;;;;;;;;;;;12.60;55.00;;;8.31;97.24;95798.09;5052723;28;20030;-58
2023/05/04 01:01:03;;;;;;;;;;;12.60;55.10;;;8.33;97.23;95808.44;5043332;28;20108;-57
2023/05/04 01:03:30;;;;;;;;;;;12.60;55.10;;;8.33;97.44;95803.16;5065442;28;20370;-54
2023/05/04 01:06:15;;;;;;;;;;;12.60;55.20;;;8.30;97.67;95793.84;5053918;28;19940;-56
2023/05/04 01:09:09;;;;;;;;;;;12.60;55.30;;;8.25;97.65;95801.72;5063946;28;19908;-55
2023/05/04 01:12:01;;;;;;;;;;;12.60;55.90;;;8.24;97.86;95796.66;5045228;28;19912;-54
2023/05/04 01:14:29;;;;;;;;;;;12.50;55.30;;;8.19;98.23;95793.94;5056838;28;19909;-55
2023/05/04 01:16:59;;;;;;;;;;;12.50;55.30;;;8.16;98.46;95794.41;5051479;28;19916;-56
2023/05/04 01:19:28;;;;;;;;;;;12.50;55.30;;;8.15;98.79;95800.75;5054113;28;20315;-56
2023/05/04 01:21:55;;;;;;;;;;;12.50;55.30;;;8.17;98.71;95794.16;5048791;28;19959;-56
2023/05/04 01:24:23;;;;;;;;;;;12.40;55.30;;;8.16;98.52;95792.56;5051913;28;19908;-55
2023/05/04 01:27:01;;;;;;;;;;;12.40;55.40;;;8.16;98.73;95795.22;5053693;28;19913;-53
2023/05/04 01:30:11;;;;;;;;;;;12.40;55.50;;;8.15;98.54;95801.59;5030608;23;19928;-50
2023/05/04 01:32:41;;;;;;;;;;;12.40;55.50;;;8.10;98.57;95804.94;5012693;28;19952;-55
2023/05/04 01:35:10;;;;;;;;;;;12.40;55.60;;;8.06;99.00;95801.19;5012685;28;19913;-51
2023/05/04 01:37:36;;;;;;;;;;;12.40;55.60;;;8.02;99.10;95794.78;5013275;28;19921;-53
2023/05/04 01:40:03;;;;;;;;;;;12.40;55.70;;;7.97;99.32;95794.69;5011854;28;20034;-53
2023/05/04 01:42:28;;;;;;;;;;;12.30;55.70;;;7.93;99.32;95790.91;5013300;28;19945;-54
2023/05/04 01:44:55;;;;;;;;;;;12.30;55.80;;;7.87;99.73;95790.03;5012979;28;19966;-54
2023/05/04 01:47:21;;;;;;;;;;;12.30;55.80;;;7.86;99.81;95790.25;5012332;28;20426;-52
2023/05/04 01:49:46;;;;;;;;;;;12.30;55.90;;;7.84;99.93;95795.81;5013084;28;20003;-53
2023/05/04 01:52:12;;;;;;;;;;;12.20;55.90;;;7.83;100.00;95798.69;5011958;28;20363;-51
2023/05/04 01:54:38;;;;;;;;;;;12.20;56.00;;;7.80;99.62;95799.19;5013207;28;19936;-54
2023/05/04 01:57:03;;;;;;;;;;;12.20;56.00;;;7.76;100.00;95798.84;5012737;28;19916;-53
2023/05/04 01:59:29;;;;;;;;;;;12.10;56.00;;;7.75;100.00;95807.06;5011616;28;19913;-51
2023/05/04 02:01:55;;;;;;;;;;;12.10;56.10;;;7.76;100.00;95804.16;5012995;28;20260;-50
2023/05/04 02:04:21;;;;;;;;;;;12.10;56.20;;;7.77;100.00;95802.31;5011869;28;19973;-50
2023/05/04 02:06:46;;;;;;;;;;;12.10;56.30;;;7.74;100.00;95800.13;5013082;28;19995;-52
2023/05/04 02:09:12;;;;;;;;;;;12.00;56.30;;;7.71;100.00;95803.28;5012640;28;19910;-49
2023/05/04 02:11:38;;;;;;;;;;;12.00;56.30;;;7.68;100.00;95803.75;5010928;28;19958;-50
2023/05/04 02:14:04;;;;;;;;;;;12.00;56.40;;;7.67;100.00;95808.25;5012753;28;19909;-55
2023/05/04 02:16:30;;;;;;;;;;;12.00;57.00;;;7.68;100.00;95804.56;5011803;28;19916;-54
2023/05/04 02:18:56;;;;;;;;;;;12.00;56.50;;;7.69;100.00;95808.03;5006799;28;19909;-54
2023/05/04 02:21:21;;;;;;;;;;;12.00;57.20;;;7.71;100.00;95808.56;4999154;28;19909;-54
2023/05/04 02:23:47;;;;;;;;;;;12.00;56.70;;;7.74;100.00;95813.41;5017257;28;19913;-50
2023/05/04 02:26:13;;;;;;;;;;;12.00;56.80;;;7.72;100.00;95804.91;5012752;28;19909;-53
2023/05/04 02:28:39;;;;;;;;;;;12.00;56.80;;;7.70;100.00;95814.94;5016859;28;20027;-53
2023/05/04 02:31:04;;;;;;;;;;;12.00;56.80;;;7.68;100.00;95809.06;5032263;28;19913;-53
2023/05/04 02:33:30;;;;;;;;;;;12.00;56.80;;;7.65;100.00;95813.00;5031417;28;20278;-50
2023/05/04 02:35:56;;;;;;;;;;;12.00;56.80;;;7.60;100.00;95803.09;5027225;28;20367;-51
2023/05/04 02:38:22;;;;;;;;;;;12.00;56.80;;;7.58;100.00;95807.88;5032108;28;20035;-49
2023/05/04 02:40:48;;;;;;;;;;;12.00;56.80;;;7.56;100.00;95809.16;5036006;28;19908;-50
2023/05/04 02:43:13;;;;;;;;;;;11.90;56.80;;;7.54;100.00;95809.38;5032340;28;19913;-51
2023/05/04 02:45:39;;;;;;;;;;;11.90;56.80;;;7.51;100.00;95803.75;5032593;28;19908;-55
2023/05/04 02:48:05;;;;;;;;;;;11.90;56.80;;;7.47;100.00;95805.28;5039537;28;19920;-52
2023/05/04 02:50:30;;;;;;;;;;;11.90;56.90;;;7.45;100.00;95800.19;5031929;28;19960;-49
2023/05/04 02:52:56;;;;;;;;;;;11.80;56.90;;;7.41;100.00;95805.19;5031348;28;19935;-52
2023/05/04 02:55:22;;;;;;;;;;;11.80;56.90;;;7.39;100.00;95809.09;5032204;28;20369;-54
2023/05/04 02:57:48;;;;;;;;;;;11.80;57.00;;;7.33;100.00;95805.59;5030568;28;19915;-51
2023/05/04 03:00:14;;;;;;;;;;;11.80;57.60;;;7.28;100.00;95804.69;5031644;28;19978;-49
2023/05/04 03:02:39;;;;;;;;;;;11.70;57.60;;;7.26;100.00;95807.56;5032135;28;19908;-51
2023/05/04 03:05:06;;;;;;;;;;;11.70;57.00;;;7.25;100.00;95802.50;5030704;28;20375;-54
2023/05/04 03:07:32;;;;;;;;;;;11.70;57.10;;;7.22;100.00;95800.34;5014441;28;19939;-51
2023/05/04 03:09:57;;;;;;;;;;;11.60;57.10;;;7.17;100.00;95804.47;5031150;28;20007;-55
2023/05/04 03:12:24;;;;;;;;;;;11.60;57.20;;;7.16;100.00;95805.53;5032012;28;19908;-52
2023/05/04 03:14:50;;;;;;;;;;;11.60;57.30;;;7.18;100.00;95802.66;5031963;28;20447;-48
2023/05/04 03:17:15;;;;;;;;;;;11.60;57.40;;;7.18;100.00;95805.31;5036855;28;19999;-52
2023/05/04 03:19:41;;;;;;;;;;;11.60;57.50;;;7.15;100.00;95806.59;5031731;28;19915;-52
2023/05/04 03:22:07;;;;;;;;;;;11.50;57.40;;;7.09;100.00;95801.44;5031112;28;20347;-53
2023/05/04 03:24:33;;;;;;;;;;;11.50;57.40;;;7.06;100.00;95804.56;5031882;28;19912;-52
2023/05/04 03:26:59;;;;;;;;;;;11.50;57.40;;;7.02;100.00;95804.22;5031823;28;19912;-49
2023/05/04 03:29:25;;;;;;;;;;;11.50;57.50;;;7.03;100.00;95805.81;5017939;28;19924;-50
2023/05/04 03:31:50;;;;;;;;;;;11.40;57.60;;;7.01;100.00;95805.25;5012105;28;20007;-53
2023/05/04 03:34:20;;;;;;;;;;;11.40;57.60;;;6.88;100.00;95797.59;5011249;28;19916;-55
2023/05/04 03:36:49;;;;;;;;;;;11.40;57.60;;;6.85;100.00;95793.56;5012088;28;19909;-50
2023/05/04 03:39:16;;;;;;;;;;;11.40;57.50;;;6.84;100.00;95797.25;5011813;28;19909;-52
2023/05/04 03:41:42;;;;;;;;;;;11.30;57.50;;;6.73;100.00;95801.53;5002314;28;20318;-54
2023/05/04 03:44:08;;;;;;;;;;;11.30;57.50;;;6.65;100.00;95793.97;5011811;28;19909;-54
2023/05/04 03:46:34;;;;;;;;;;;11.20;57.40;;;6.56;100.00;95794.56;5014154;28;19916;-51
2023/05/04 03:49:00;;;;;;;;;;;11.10;57.40;;;6.51;100.00;95789.16;5015183;28;20382;-52
2023/05/04 03:51:25;;;;;;;;;;;11.10;57.50;;;6.47;100.00;95791.47;5015301;28;19921;-51
2023/05/04 03:53:51;;;;;;;;;;;11.00;57.60;;;6.41;100.00;95792.41;5018064;28;19956;-53
2023/05/04 03:56:17;;;;;;;;;;;10.90;57.70;;;6.28;100.00;95782.88;5015210;28;19955;-51
2023/05/04 03:58:43;;;;;;;;;;;10.90;57.70;;;6.20;100.00;95785.88;4995584;28;19963;-51
2023/05/04 04:01:08;;;;;;;;;;;10.80;57.70;;;6.21;100.00;95785.66;5015518;28;19920;-54
2023/05/04 04:03:35;;;;;;;;;;;10.80;57.80;;;6.19;100.00;95790.34;5013852;28;19984;-50
2023/05/04 04:06:04;;;;;;;;;;;10.80;57.90;;;6.23;100.00;95796.78;5015492;28;20008;-52
2023/05/04 04:08:30;;;;;;;;;;;10.80;58.00;;;6.32;100.00;95791.16;5015087;28;20387;-53
2023/05/04 04:10:57;;;;;;;;;;;10.70;58.10;;;6.31;100.00;95793.00;5014346;28;19963;-54
2023/05/04 04:13:22;;;;;;;;;;;10.80;58.20;;;6.26;100.00;95793.69;4997739;28;19916;-51
2023/05/04 04:15:49;;;;;;;;;;;10.70;58.20;;;6.18;100.00;95790.59;5013519;28;19909;-52
2023/05/04 04:18:15;;;;;;;;;;;10.70;58.20;;;6.11;100.00;95790.72;5010706;28;19908;-53
2023/05/04 04:20:41;;;;;;;;;;;10.70;58.20;;;6.13;100.00;95799.22;5014169;28;20436;-50
2023/05/04 04:23:06;;;;;;;;;;;10.70;58.20;;;6.11;100.00;95798.66;5025628;28;19908;-51
2023/05/04 04:25:33;;;;;;;;;;;10.60;58.20;;;6.06;100.00;95790.59;5014197;28;19932;-53
2023/05/04 04:27:58;;;;;;;;;;;10.70;58.30;;;6.09;100.00;95792.78;5017507;28;19948;-50
2023/05/04 04:30:24;;;;;;;;;;;10.60;58.40;;;6.13;100.00;95796.56;5034063;28;19970;-50
2023/05/04 04:32:50;;;;;;;;;;;10.70;58.40;;;6.11;100.00;95798.66;5033598;28;19957;-51
2023/05/04 04:35:16;;;;;;;;;;;10.70;58.50;;;6.14;100.00;95805.31;5032827;28;19909;-53
2023/05/04 04:37:41;;;;;;;;;;;10.70;58.50;;;6.18;100.00;95798.53;5033448;28;20272;-48
2023/05/04 04:40:09;;;;;;;;;;;10.70;58.60;;;6.24;100.00;95805.56;5032825;28;19912;-53
2023/05/04 04:42:35;;;;;;;;;;;10.70;58.60;;;6.28;100.00;95805.91;5033815;28;19908;-51
2023/05/04 04:45:04;;;;;;;;;;;10.80;58.70;;;6.35;100.00;95804.72;5033690;28;19916;-53
2023/05/04 04:47:31;;;;;;;;;;;10.80;58.80;;;6.47;100.00;95807.34;5032087;28;20318;-52
2023/05/04 04:49:57;;;;;;;;;;;10.90;58.80;;;6.63;100.00;95803.19;5033852;28;20301;-54
2023/05/04 04:52:23;;;;;;;;;;;11.00;58.80;;;6.85;100.00;95816.59;5032514;28;20007;-50
2023/05/04 04:54:49;;;;;;;;;;;11.20;59.50;;;7.04;100.00;95815.38;5033313;28;19909;-50
2023/05/04 04:57:14;;;;;;;;;;;11.30;59.00;;;7.23;100.00;95823.13;5014621;28;19915;-53
2023/05/04 04:59:40;;;;;;;;;;;11.50;59.00;;;7.40;100.00;95818.69;5032333;28;19909;-49
2023/05/04 05:02:06;;;;;;;;;;;11.60;59.00;;;7.57;100.00;95819.50;5032968;28;19909;-52
2023/05/04 05:04:33;;;;;;;;;;;11.80;58.90;;;7.75;100.00;95823.78;5032465;28;19996;-54
2023/05/04 05:06:58;;;;;;;;;;;12.00;58.80;;;7.90;100.00;95828.53;5032570;28;19995;-54
2023/05/04 05:09:24;;;;;;;;;;;12.10;58.70;;;8.06;100.00;95826.91;5032643;28;20291;-54
2023/05/04 05:11:50;;;;;;;;;;;12.30;58.60;;;8.25;100.00;95830.13;5032186;28;19956;-54
2023/05/04 05:14:15;;;;;;;;;;;12.50;58.50;;;8.35;100.00;95827.59;5033167;28;20282;-53
2023/05/04 05:16:41;;;;;;;;;;;12.70;58.40;;;8.47;100.00;95828.34;5024007;28;19948;-53
2023/05/04 05:19:07;;;;;;;;;;;12.90;58.20;;;8.66;99.82;95830.69;5031433;28;19909;-53
2023/05/04 05:21:33;;;;;;;;;;;13.20;58.20;;;8.85;98.58;95826.69;5032352;28;19912;-55
2023/05/04 05:23:58;;;;;;;;;;;13.40;58.00;;;9.03;97.41;95822.94;5032809;28;19909;-54
2023/05/04 05:26:24;;;;;;;;;;;13.60;57.80;;;9.20;96.61;95826.28;5032504;28;20011;-53
2023/05/04 05:28:50;;;;;;;;;;;13.80;57.70;;;9.38;95.39;95825.16;5031600;28;19932;-52
2023/05/04 05:31:16;;;;;;;;;;;14.10;57.60;;;9.56;94.18;95829.31;5032506;28;19999;-55
2023/05/04 05:33:41;;;;;;;;;;;14.30;57.40;;;9.79;93.22;95828.19;5031880;28;19908;-48
2023/05/04 05:36:08;;;;;;;;;;;14.50;57.30;;;10.02;92.16;95836.88;5031992;28;19962;-51
2023/05/04 05:38:33;;;;;;;;;;;14.70;57.10;;;10.19;90.63;95833.03;5032327;28;19958;-54
2023/05/04 05:40:59;;;;;;;;;;;15.00;57.30;;;10.38;88.97;95837.97;5033172;28;20488;-51
2023/05/04 05:43:25;;;;;;;;;;;15.20;56.80;;;10.54;88.07;95834.34;5031714;28;19912;-53
2023/05/04 05:45:51;;;;;;;;;;;15.50;56.70;;;10.77;86.89;95840.31;5030750;28;19967;-55
2023/05/04 05:48:16;;;;;;;;;;;15.70;56.60;;;10.90;85.00;95842.50;5031431;28;20371;-55
2023/05/04 05:50:42;;;;;;;;;;;15.90;56.40;;;11.06;84.76;95841.53;5032131;28;19985;-54
2023/05/04 05:53:08;;;;;;;;;;;16.10;56.10;;;11.25;84.08;95843.72;5040439;28;19909;-54
2023/05/04 05:55:33;;;;;;;;;;;16.30;55.90;;;11.44;82.48;95841.34;5030975;28;19908;-53
2023/05/04 05:57:59;;;;;;;;;;;16.60;55.80;;;11.62;81.31;95840.06;5029968;28;19919;-49
2023/05/04 06:00:25;;;;;;;;;;;16.80;55.50;;;11.41;80.48;95834.72;5032015;28;20337;-53
2023/05/04 06:02:51;;;;;;;;;;;17.00;55.20;;;11.57;79.97;95843.53;5031835;28;20274;-54
2023/05/04 06:05:17;;;;;;;;;;;17.20;55.00;;;11.71;78.47;95844.63;5035200;28;19962;-55
2023/05/04 06:07:42;;;;;;;;;;;17.50;55.50;;;11.89;79.23;95855.88;5031379;28;19909;-54
2023/05/04 06:10:09;;;;;;;;;;;17.60;54.60;;;12.19;77.13;95842.56;5035291;28;19912;-51
2023/05/04 06:12:35;;;;;;;;;;;17.80;54.40;;;12.48;75.74;95847.31;5034526;28;19923;-54
2023/05/04 06:15:01;;;;;;;;;;;18.00;54.20;;;12.77;74.75;95841.38;5014324;28;19909;-52
2023/05/04 06:17:27;;;;;;;;;;;18.30;54.10;;;12.89;72.75;95847.22;5030199;28;20335;-51
2023/05/04 06:19:52;;;;;;;;;;;18.50;53.80;;;13.17;73.99;95851.13;5031566;28;19955;-54
2023/05/04 06:22:18;;;;;;;;;;;18.70;53.60;;;13.41;72.13;95837.94;5032269;28;19908;-52
2023/05/04 06:24:45;;;;;;;;;;;18.90;53.40;;;13.49;71.46;95844.59;5030460;28;19913;-55
2023/05/04 06:27:11;;;;;;;;;;;19.10;53.10;;;13.75;70.12;95837.19;5031254;28;19963;-51
2023/05/04 06:29:38;;;;;;;;;;;19.40;52.90;;;13.86;69.98;95831.50;5009310;28;19924;-54
2023/05/04 06:32:04;;;;;;;;;;;19.60;52.60;;;13.96;69.24;95837.84;5011559;28;19948;-53
2023/05/04 06:34:30;;;;;;;;;;;19.80;52.40;;;14.13;67.46;95835.56;5018887;28;19908;-51
2023/05/04 06:36:56;;;;;;;;;;;20.00;52.10;;;14.15;67.86;95827.25;5012180;28;19932;-52
2023/05/04 06:39:22;;;;;;;;;;;20.20;51.80;;;14.43;67.74;95831.03;5011606;28;20012;-55
2023/05/04 06:41:47;;;;;;;;;;;20.40;51.60;;;14.80;66.41;95827.75;5010528;28;20008;-52
2023/05/04 06:44:13;;;;;;;;;;;20.60;51.50;;;14.93;63.89;95827.03;5011837;28;20374;-51
2023/05/04 06:46:39;;;;;;;;;;;20.90;51.20;;;15.13;64.24;95831.34;5010076;28;19916;-54
2023/05/04 06:49:05;;;;;;;;;;;21.00;50.90;;;14.73;63.67;95829.97;5011170;28;19971;-54
2023/05/04 06:51:31;;;;;;;;;;;21.30;51.20;;;14.97;63.15;95828.06;5011016;28;20011;-55
2023/05/04 06:53:58;;;;;;;;;;;21.40;50.30;;;15.22;63.85;95829.63;5011289;28;20003;-56
2023/05/04 06:56:24;;;;;;;;;;;21.70;50.10;;;15.61;61.92;95825.91;5010530;28;19909;-55
2023/05/04 06:58:50;;;;;;;;;;;21.90;49.90;;;15.88;60.41;95833.31;5010457;28;19943;-54
2023/05/04 07:01:15;;;;;;;;;;;22.10;49.60;;;15.93;59.17;95829.78;5011269;28;19909;-54
2023/05/04 07:03:41;;;;;;;;;;;22.30;49.30;;;16.29;59.23;95839.94;5008875;28;19916;-53
2023/05/04 07:06:08;;;;;;;;;;;22.50;49.00;;;16.49;58.89;95828.06;5009560;28;19916;-54
2023/05/04 07:08:33;;;;;;;;;;;22.80;48.80;;;16.95;56.81;95835.31;5009932;28;19909;-54
2023/05/04 07:10:59;;;;;;;;;;;23.00;48.60;;;17.21;55.34;95831.03;5009603;28;19920;-50
2023/05/04 07:13:25;;;;;;;;;;;23.30;48.30;;;17.52;54.87;95835.78;5009633;28;19913;-53
2023/05/04 07:15:51;;;;;;;;;;;23.60;48.00;;;17.53;54.37;95838.16;5008116;28;20889;-54
2023/05/04 07:18:17;;;;;;;;;;;23.80;47.60;;;17.87;53.79;95828.81;5011059;28;20348;-56
2023/05/04 07:20:43;;;;;;;;;;;24.00;47.30;;;18.23;53.83;95841.44;5013091;28;20379;-51
2023/05/04 07:23:09;;;;;;;;;;;24.30;47.00;;;18.47;53.15;95835.75;5015319;28;19909;-55
2023/05/04 07:25:35;;;;;;;;;;;24.50;46.80;;;18.46;52.04;95834.94;5015321;28;20524;-53
2023/05/04 07:28:00;;;;;;;;;;;24.80;46.50;;;18.63;51.63;95838.84;5018850;28;20382;-54
2023/05/04 07:30:26;;;;;;;;;;;25.00;46.20;;;19.02;51.24;95843.50;5013100;23;19928;-53
2023/05/04 07:32:52;;;;;;;;;;;25.20;45.80;;;19.19;50.18;95837.38;4994882;28;19909;-50
2023/05/04 07:35:18;;;;;;;;;;;25.50;45.70;;;18.86;50.19;95840.41;4999889;28;20284;-56
2023/05/04 07:37:45;;;;;;;;;;;25.70;45.40;;;18.95;50.53;95835.03;4996130;28;19909;-49
2023/05/04 07:40:13;;;;;;;;;;;25.90;45.10;;;19.22;49.15;95830.53;4994988;28;20334;-49
2023/05/04 07:42:40;;;;;;;;;;;26.00;44.70;;;19.32;48.81;95827.53;4996212;28;20029;-51
2023/05/04 07:45:08;;;;;;;;;;;26.20;44.40;;;19.38;49.46;95823.59;4996301;28;19909;-52
2023/05/04 07:47:35;;;;;;;;;;;26.40;44.30;;;19.70;48.91;95821.59;4996618;28;19909;-50
2023/05/04 07:50:02;;;;;;;;;;;26.60;44.10;;;19.74;49.31;95817.97;4995915;28;19914;-50
2023/05/04 07:52:27;;;;;;;;;;;26.80;43.90;;;19.98;49.38;95817.47;4994994;28;19909;-49
2023/05/04 07:54:54;;;;;;;;;;;27.00;43.60;;;20.30;48.05;95823.47;5010981;28;20007;-51
2023/05/04 07:57:20;;;;;;;;;;;27.10;43.20;;;20.49;47.78;95817.72;4995492;28;19916;-49
2023/05/04 07:59:46;;;;;;;;;;;27.30;43.00;;;20.06;48.03;95819.38;4995066;28;20334;-50
2023/05/04 08:02:12;;;;;;;;;;;27.40;42.70;;;20.27;47.66;95816.78;4995841;28;19964;-51
2023/05/04 08:04:38;;;;;;;;;;;27.50;42.60;;;20.70;46.96;95818.66;4994693;28;20375;-54
2023/05/04 08:07:03;;;;;;;;;;;27.60;42.50;;;21.14;45.69;95826.59;4995541;28;19955;-51
2023/05/04 08:09:29;;;;;;;;;;;27.80;42.30;;;21.34;44.79;95822.34;4995354;28;19984;-47
2023/05/04 08:11:55;;;;;;;;;;;28.00;42.20;;;21.52;43.30;95820.38;4994916;28;20418;-52
2023/05/04 08:14:20;;;;;;;;;;;28.20;42.00;;;21.67;43.80;95819.78;4995806;28;19917;-50
2023/05/04 08:16:46;;;;;;;;;;;28.40;41.60;;;21.93;43.67;95819.59;4994454;28;20367;-49
2023/05/04 08:19:12;;;;;;;;;;;28.60;41.40;;;21.92;43.50;95813.38;4995538;28;19916;-47
2023/05/04 08:21:39;;;;;;;;;;;28.80;41.20;;;21.97;42.72;95817.81;4994547;28;19909;-52
2023/05/04 08:24:06;;;;;;;;;;;28.90;40.90;;;21.92;42.76;95821.50;4995252;28;19909;-51
2023/05/04 08:26:32;;;;;;;;;;;29.10;40.60;;;22.04;43.61;95815.34;4995754;28;19910;-49
2023/05/04 08:29:09;;;;;;;;;;;29.20;40.30;;;22.04;43.71;95811.84;4997283;28;19909;-52
2023/05/04 08:31:35;;;;;;;;;;;29.40;40.10;;;22.06;42.85;95815.84;5015535;28;19913;-50
2023/05/04 08:34:02;;;;;;;;;;;29.50;39.90;;;22.28;42.99;95819.31;5030269;28;19967;-53
2023/05/04 08:36:29;;;;;;;;;;;29.60;39.50;;;22.31;42.69;95822.19;5029449;28;20363;-53
2023/05/04 08:38:55;;;;;;;;;;;29.80;39.50;;;22.72;42.31;95812.34;5027144;28;19916;-50
2023/05/04 08:41:22;;;;;;;;;;;29.90;39.40;;;22.71;41.66;95812.66;5020659;28;19909;-53
2023/05/04 08:43:51;;;;;;;;;;;30.10;39.20;;;22.92;41.67;95807.94;5034600;28;19913;-49
2023/05/04 08:46:17;;;;;;;;;;;30.30;39.00;;;23.01;41.39;95816.03;5033773;28;19908;-48
2023/05/04 08:48:43;;;;;;;;;;;30.40;38.80;;;22.75;41.87;95816.28;5026601;28;19908;-48
2023/05/04 08:51:13;;;;;;;;;;;30.50;38.60;;;23.07;41.49;95801.88;5034052;28;20294;-51
2023/05/04 08:53:44;;;;;;;;;;;30.60;38.40;;;23.08;41.63;95802.66;5025794;28;20371;-53
2023/05/04 08:56:13;;;;;;;;;;;30.80;38.20;;;23.36;40.80;95800.03;5033931;28;19961;-55
2023/05/04 08:59:00;;;;;;;;;;;30.90;38.10;;;23.87;40.80;95805.06;5025123;28;19916;-54
2023/05/04 09:01:27;;;;;;;;;;;31.10;37.90;;;24.40;39.98;95809.28;5014172;28;19913;-55
2023/05/04 09:03:53;;;;;;;;;;;31.30;37.80;;;24.58;38.09;95807.09;5012302;28;20034;-53
2023/05/04 09:06:20;;;;;;;;;;;31.60;37.70;;;24.30;38.96;95798.13;5022702;28;19913;-49
2023/05/04 09:08:45;;;;;;;;;;;31.80;37.50;;;23.84;39.43;95795.66;5033992;28;19916;-55
2023/05/04 09:11:11;;;;;;;;;;;31.90;37.10;;;24.29;38.14;95791.91;5027276;28;19912;-52
2023/05/04 09:13:37;;;;;;;;;;;32.00;36.80;;;24.70;37.97;95798.06;5033695;28;19908;-57
2023/05/04 09:16:04;;;;;;;;;;;32.20;36.70;;;24.40;38.01;95801.13;5029041;28;19916;-57
2023/05/04 09:18:41;;;;;;;;;;;32.30;36.40;;;24.65;38.47;95801.81;5028223;28;20007;-55
2023/05/04 09:21:08;;;;;;;;;;;32.50;36.30;;;24.47;39.08;95792.38;5034079;28;20278;-51
2023/05/04 09:23:46;;;;;;;;;;;32.50;36.20;;;24.75;37.41;95800.50;5031886;28;19916;-48
2023/05/04 09:26:11;;;;;;;;;;;32.60;36.00;;;25.02;36.87;95804.31;5033535;28;19909;-52
2023/05/04 09:28:38;;;;;;;;;;;32.60;36.40;;;24.72;37.72;95803.94;5027544;28;19908;-51
2023/05/04 09:31:06;;;;;;;;;;;32.70;35.80;;;24.67;37.64;95802.25;5027408;28;19917;-55
2023/05/04 09:33:33;;;;;;;;;;;32.70;35.60;;;24.98;38.36;95799.91;5025094;28;19908;-54
2023/05/04 09:36:19;;;;;;;;;;;32.70;35.50;;;25.25;38.38;95788.13;5031906;28;19912;-52
2023/05/04 09:38:46;;;;;;;;;;;32.80;35.50;;;25.24;37.23;95802.91;5033297;28;19955;-48
2023/05/04 09:41:12;;;;;;;;;;;33.00;35.40;;;25.33;37.38;95795.34;5026768;28;19915;-55
2023/05/04 09:43:43;;;;;;;;;;;33.10;35.20;;;25.76;36.87;95800.94;5033236;28;20274;-51
2023/05/04 09:46:19;;;;;;;;;;;33.30;35.10;;;26.06;35.93;95795.75;5031786;28;19912;-53
2023/05/04 09:48:52;;;;;;;;;;;33.50;35.00;;;25.95;36.34;95795.56;5032645;28;19909;-57
2023/05/04 09:51:21;;;;;;;;;;;33.60;34.80;;;25.96;36.97;95791.66;5032836;28;19963;-54
2023/05/04 09:53:49;;;;;;;;;;;33.80;34.70;;;26.45;36.15;95793.81;5031305;28;19916;-56
2023/05/04 09:56:54;;;;;;;;;;;34.00;34.80;;;26.57;35.28;95792.06;5032754;28;20005;-54
2023/05/04 09:59:21;;;;;;;;;;;34.10;34.60;;;26.84;34.94;95793.72;4957135;28;20340;-53
2023/05/04 10:01:47;;;;;;;;;;;34.20;34.40;;;27.01;34.57;95789.72;5017347;28;19954;-55
2023/05/04 10:04:13;;;;;;;;;;;34.40;34.30;;;27.15;34.87;95794.66;5025946;28;19913;-54
2023/05/04 10:06:42;;;;;;;;;;;34.50;34.20;;;27.36;34.94;95781.31;5028877;28;19999;-51
2023/05/04 10:09:10;;;;;;;;;;;34.60;34.00;;;27.24;34.90;95784.25;5032636;28;19961;-49
2023/05/04 10:11:36;;;;;;;;;;;34.90;33.90;;;27.03;34.49;95789.34;5013895;28;19917;-50
2023/05/04 10:14:02;;;;;;;;;;;35.00;33.60;;;27.07;34.72;95793.72;5015112;28;19954;-50
2023/05/04 10:16:56;;;;;;;;;;;35.10;33.40;;;27.43;34.81;95792.38;5026954;28;19912;-50
2023/05/04 10:19:39;;;;;;;;;;;35.20;33.40;;;27.40;33.74;95784.13;5009454;28;20367;-49
2023/05/04 10:22:50;;;;;;;;;;;35.30;33.30;;;27.81;34.60;95787.06;5027232;28;19909;-50
2023/05/04 10:25:37;;;;;;;;;;;35.30;33.20;;;28.05;32.29;95783.06;5020616;28;19908;-52
2023/05/04 10:28:26;;;;;;;;;;;35.50;33.10;;;27.88;32.99;95787.13;5031001;28;20375;-52
2023/05/04 10:30:57;;;;;;;;;;;35.70;32.90;;;28.22;33.55;95784.44;5027795;28;20311;-55
2023/05/04 10:33:24;;;;;;;;;;;35.80;32.50;;;28.25;33.21;95781.72;5013127;28;19940;-52
2023/05/04 10:35:54;;;;;;;;;;;36.00;32.40;;;28.07;33.63;95780.72;5010814;28;19948;-54
2023/05/04 10:38:35;;;;;;;;;;;36.20;32.30;;;28.55;33.18;95775.41;5032483;28;20359;-55
2023/05/04 10:41:20;;;;;;;;;;;36.30;32.20;;;28.80;31.55;95778.38;5025113;28;19909;-50
2023/05/04 10:43:49;;;;;;;;;;;36.50;32.10;;;28.91;31.68;95770.28;5031812;28;19909;-53
2023/05/04 10:46:22;;;;;;;;;;;36.60;31.80;;;28.83;32.21;95767.47;5030754;28;19909;-53
2023/05/04 10:48:50;;;;;;;;;;;36.60;31.60;;;28.68;32.58;95760.28;5032159;28;19920;-50
2023/05/04 10:51:24;;;;;;;;;;;36.70;31.50;;;28.99;31.82;95760.97;5032395;28;19917;-49
2023/05/04 10:53:51;;;;;;;;;;;36.80;31.50;;;28.70;31.52;95763.44;5013495;28;19909;-52
2023/05/04 10:56:27;;;;;;;;;;;36.90;31.40;;;29.04;31.97;95755.13;5005005;28;19915;-50
2023/05/04 10:58:54;;;;;;;;;;;37.00;31.20;;;28.68;31.95;95749.34;5026592;28;19909;-51
2023/05/04 11:01:21;;;;;;;;;;;37.00;31.00;;;28.83;32.41;95750.22;5032095;28;19912;-52
2023/05/04 11:03:51;;;;;;;;;;;37.00;31.60;;;28.83;32.10;95742.00;5029642;28;19996;-52
2023/05/04 11:06:22;;;;;;;;;;;37.20;30.80;;;29.13;31.00;95741.09;5025440;28;19909;-53
2023/05/04 11:09:00;;;;;;;;;;;37.20;30.80;;;29.21;30.44;95742.75;5025094;28;20295;-49
2023/05/04 11:11:26;;;;;;;;;;;37.20;30.60;;;28.94;30.40;95734.66;5013791;28;19936;-50
2023/05/04 11:13:53;;;;;;;;;;;37.30;30.30;;;28.89;30.14;95734.22;5031935;28;20374;-53
2023/05/04 11:16:26;;;;;;;;;;;37.20;30.10;;;28.94;30.36;95734.66;5009504;28;19913;-50
2023/05/04 11:19:08;;;;;;;;;;;37.10;30.00;;;29.29;30.97;95733.38;5024151;28;19912;-53
2023/05/04 11:21:34;;;;;;;;;;;37.10;30.50;;;29.34;29.82;95730.28;5026140;28;19951;-55
2023/05/04 11:24:00;;;;;;;;;;;37.20;29.90;;;29.41;30.18;95726.78;5009304;28;20355;-53